Time;durP1;ratioP1;P1;durP2;ratioP2;P2;SDS_P1;SDS_P2;PMS_P1;PMS_P2;Temp;Humidity;BMP_temperature;BMP_pressure;BME280_temperature;BME280_humidity;BME280_pressure;Samples;Min_cycle;Max_cycle;Signal;HPM_P1;HPM_P2
2023/08/21 00:00:04;;;;;;;;;2.25;2.00;;;;;24.53;50.48;101920.06;5056408;28;45155;-48
2023/08/21 00:02:29;;;;;;;;;2.00;2.00;;;;;24.47;50.12;101912.72;5056231;28;47058;-45
2023/08/21 00:04:55;;;;;;;;;3.50;2.00;;;;;24.53;50.38;101921.94;5056026;28;45569;-47
2023/08/21 00:07:20;;;;;;;;;3.00;1.00;;;;;24.49;49.97;101918.78;5056298;28;45484;-47
2023/08/21 00:09:46;;;;;;;;;2.75;1.00;;;;;24.45;50.54;101911.28;5056628;28;45445;-49
2023/08/21 00:12:11;;;;;;;;;7.00;2.00;;;;;24.38;49.91;101903.09;5055999;28;46457;-47
2023/08/21 00:14:37;;;;;;;;;0.25;0.25;;;;;24.42;50.74;101912.50;5055948;28;45429;-51
2023/08/21 00:17:05;;;;;;;;;0.75;0.75;;;;;24.41;50.54;101908.13;5056056;28;45382;-47
2023/08/21 00:19:32;;;;;;;;;1.20;1.20;;;;;24.30;50.73;101901.41;5056381;28;45457;-50
2023/08/21 00:21:57;;;;;;;;;1.40;1.00;;;;;24.35;50.31;101911.63;5055981;28;47523;-48
2023/08/21 00:24:24;;;;;;;;;2.80;0.80;;;;;24.28;50.18;101899.94;5055617;28;45315;-48
2023/08/21 00:26:49;;;;;;;;;0.00;0.00;;;;;24.28;50.34;101902.66;5056215;28;45368;-49
2023/08/21 00:29:14;;;;;;;;;1.00;1.00;;;;;24.27;50.53;101900.97;5056161;28;45330;-50
2023/08/21 00:31:39;;;;;;;;;3.75;2.00;;;;;24.21;50.48;101894.50;5055827;28;46043;-52
2023/08/21 00:34:05;;;;;;;;;2.50;1.50;;;;;24.15;51.20;101884.47;5055822;28;45418;-48
2023/08/21 00:36:30;;;;;;;;;0.50;0.50;;;;;24.13;51.05;101883.81;5055747;28;45398;-48
2023/08/21 00:38:56;;;;;;;;;1.50;1.00;;;;;24.13;50.72;101898.25;5055986;28;45312;-48
2023/08/21 00:41:21;;;;;;;;;1.00;1.00;;;;;24.05;50.57;101884.03;5055657;28;47241;-48
2023/08/21 00:43:46;;;;;;;;;3.25;1.00;;;;;24.08;50.80;101900.78;5055524;28;45456;-48
2023/08/21 00:46:13;;;;;;;;;3.00;0.25;;;;;24.02;50.43;101895.31;5055832;28;45443;-49
2023/08/21 00:48:38;;;;;;;;;2.60;1.40;;;;;23.99;50.85;101893.03;5056111;28;45339;-48
2023/08/21 00:51:06;;;;;;;;;4.50;2.00;;;;;23.92;50.85;101887.56;5055608;28;46011;-46
2023/08/21 00:53:32;;;;;;;;;6.40;0.80;;;;;23.95;50.89;101902.66;5055398;28;45416;-46
2023/08/21 00:55:58;;;;;;;;;34.50;30.50;;;;;23.92;51.05;101898.44;5055764;28;45570;-45
2023/08/21 00:58:23;;;;;;;;;11.40;5.60;;;;;23.89;50.57;101893.41;5059385;28;45178;-46
2023/08/21 01:00:51;;;;;;;;;2.00;1.00;;;;;23.86;50.80;101888.41;5058985;28;45488;-44
2023/08/21 01:03:18;;;;;;;;;2.20;1.00;;;;;23.87;50.62;101895.53;5058915;28;45399;-48
2023/08/21 01:05:43;;;;;;;;;1.40;1.40;;;;;23.80;50.41;101894.66;5059259;28;45506;-51
2023/08/21 01:08:24;;;;;;;;;0.75;0.75;;;;;23.78;50.64;101902.19;5059068;28;45408;-50
2023/08/21 01:10:52;;;;;;;;;0.80;0.80;;;;;23.73;50.60;101905.53;5058959;28;45909;-49
2023/08/21 01:13:55;;;;;;;;;1.00;1.00;;;;;23.67;50.64;101903.63;5058689;28;45300;-48
2023/08/21 01:16:22;;;;;;;;;2.00;1.00;;;;;23.65;50.99;101906.56;5058995;28;45359;-50
2023/08/21 01:18:49;;;;;;;;;2.60;1.00;;;;;23.65;50.88;101909.28;5059025;28;45470;-49
2023/08/21 01:21:15;;;;;;;;;1.80;1.80;;;;;23.65;50.44;101905.72;5058608;28;46676;-47
2023/08/21 01:23:42;;;;;;;;;1.00;1.00;;;;;23.61;50.66;101902.53;5058451;28;45758;-48
2023/08/21 01:26:07;;;;;;;;;1.80;0.80;;;;;23.63;51.09;101905.03;5058695;28;45806;-49
2023/08/21 01:28:34;;;;;;;;;2.00;0.00;;;;;23.63;51.37;101913.19;5059049;28;45364;-47
2023/08/21 01:31:14;;;;;;;;;1.40;1.40;;;;;23.60;50.93;101913.63;5058320;28;47088;-48
2023/08/21 01:33:48;;;;;;;;;2.60;0.80;;;;;23.51;50.72;101906.69;5058550;28;45414;-47
2023/08/21 01:36:14;;;;;;;;;2.80;1.00;;;;;23.55;51.40;101910.66;5058415;28;45345;-47
2023/08/21 01:38:40;;;;;;;;;2.00;1.20;;;;;23.53;51.00;101916.31;5058620;28;45382;-49
2023/08/21 01:41:05;;;;;;;;;0.00;0.00;;;;;23.52;51.40;101913.81;5058287;28;45364;-48
2023/08/21 01:43:31;;;;;;;;;2.50;1.00;;;;;23.47;50.94;101916.28;5058510;28;45428;-50
2023/08/21 01:45:56;;;;;;;;;2.00;0.50;;;;;23.47;50.87;101924.41;5058635;28;45347;-48
2023/08/21 01:48:22;;;;;;;;;0.75;0.75;;;;;23.46;51.48;101923.59;5058739;28;45332;-47
2023/08/21 01:50:47;;;;;;;;;1.50;1.00;;;;;23.44;51.23;101919.41;5058108;28;47485;-46
2023/08/21 01:53:12;;;;;;;;;2.50;2.00;;;;;23.42;51.12;101919.59;5057999;28;45490;-47
2023/08/21 01:55:38;;;;;;;;;2.75;2.00;;;;;23.38;51.09;101919.16;5058176;28;45347;-48
2023/08/21 01:58:03;;;;;;;;;2.50;0.00;;;;;23.36;51.28;101912.28;5058469;28;45216;-48
2023/08/21 02:00:29;;;;;;;;;2.25;0.25;;;;;23.35;51.25;101935.06;5058105;28;46245;-50
2023/08/21 02:02:54;;;;;;;;;1.75;1.25;;;;;23.32;51.45;101925.41;5058132;28;45312;-48
2023/08/21 02:05:19;;;;;;;;;0.25;0.25;;;;;23.30;51.56;101927.50;5058401;28;45326;-52
2023/08/21 02:07:45;;;;;;;;;1.50;0.00;;;;;23.27;51.58;101927.91;5058172;28;45324;-51
2023/08/21 02:10:11;;;;;;;;;1.00;1.00;;;;;23.26;51.91;101925.38;5057934;28;45438;-51
2023/08/21 02:12:36;;;;;;;;;0.50;0.50;;;;;23.24;51.78;101930.19;5057993;28;45372;-51
2023/08/21 02:15:01;;;;;;;;;0.25;0.25;;;;;23.24;51.93;101925.59;5058054;28;45394;-47
2023/08/21 02:17:27;;;;;;;;;1.00;1.00;;;;;23.25;51.83;101926.41;5058055;28;45399;-47
2023/08/21 02:19:52;;;;;;;;;0.50;0.50;;;;;23.19;51.59;101924.53;5057704;28;46296;-47
2023/08/21 02:22:18;;;;;;;;;1.50;1.50;;;;;23.16;51.45;101910.31;5057618;28;45385;-45
2023/08/21 02:24:43;;;;;;;;;3.75;0.75;;;;;23.19;51.81;101919.94;5057692;28;45449;-47
2023/08/21 02:27:09;;;;;;;;;2.50;0.75;;;;;23.14;51.92;101922.41;5057990;28;45354;-47
2023/08/21 02:29:34;;;;;;;;;0.50;0.50;;;;;23.08;51.87;101912.34;5057593;28;46415;-46
2023/08/21 02:31:59;;;;;;;;;2.75;1.50;;;;;23.05;52.26;101908.19;5057653;28;45474;-47
2023/08/21 02:34:25;;;;;;;;;2.50;0.75;;;;;23.07;52.56;101914.22;5057622;28;45429;-47
2023/08/21 02:36:50;;;;;;;;;0.75;0.75;;;;;23.05;52.33;101912.75;5057775;28;45423;-47
2023/08/21 02:39:15;;;;;;;;;1.00;1.00;;;;;23.01;52.35;101912.34;5057323;28;47482;-50
2023/08/21 02:41:40;;;;;;;;;2.00;1.00;;;;;22.99;52.32;101911.69;5057466;28;45581;-49
2023/08/21 02:44:06;;;;;;;;;2.75;1.00;;;;;22.96;52.44;101903.94;5057774;28;45448;-48
2023/08/21 02:46:33;;;;;;;;;1.00;1.00;;;;;22.99;52.58;101917.09;5057726;28;45355;-51
2023/08/21 02:48:58;;;;;;;;;1.40;1.20;;;;;22.98;52.67;101915.44;5057445;28;45368;-49
2023/08/21 02:51:24;;;;;;;;;1.25;1.00;;;;;23.03;52.52;101918.38;5057501;28;45391;-47
2023/08/21 02:53:49;;;;;;;;;1.75;1.75;;;;;23.08;52.26;101915.91;5057256;28;45487;-52
2023/08/21 02:56:14;;;;;;;;;1.25;1.25;;;;;23.10;52.33;101921.97;5057614;28;45395;-50
2023/08/21 02:58:40;;;;;;;;;1.00;1.00;;;;;23.12;52.35;101925.31;5056971;28;45257;-48
2023/08/21 03:01:05;;;;;;;;;4.50;1.50;;;;;23.11;52.42;101917.38;5057049;28;47940;-47
2023/08/21 03:03:32;;;;;;;;;1.25;0.50;;;;;23.10;52.11;101921.97;5057230;28;45576;-49
2023/08/21 03:05:57;;;;;;;;;3.40;1.00;;;;;23.08;52.11;101924.03;5057245;28;45329;-47
2023/08/21 03:08:23;;;;;;;;;3.50;2.00;;;;;23.05;52.24;101920.88;5057080;28;46229;-47
2023/08/21 03:10:48;;;;;;;;;3.50;3.00;;;;;23.02;52.29;101914.00;5056941;28;46025;-46
2023/08/21 03:13:13;;;;;;;;;3.25;3.25;;;;;22.97;52.35;101904.78;5055608;28;45473;-49
2023/08/21 03:15:39;;;;;;;;;5.25;2.75;;;;;22.91;52.62;101907.25;5057365;28;45293;-48
2023/08/21 03:18:04;;;;;;;;;2.75;2.75;;;;;22.88;52.58;101906.78;5056799;28;45456;-50
2023/08/21 03:20:29;;;;;;;;;4.50;4.00;;;;;22.88;52.58;101913.06;5056318;28;45434;-47
2023/08/21 03:22:55;;;;;;;;;6.00;5.00;;;;;22.84;52.85;101916.38;5056954;28;45406;-48
2023/08/21 03:25:20;;;;;;;;;5.25;4.00;;;;;22.80;52.82;101910.50;5057056;28;45486;-53
2023/08/21 03:27:49;;;;;;;;;7.00;5.00;;;;;22.79;52.74;101913.41;5056956;28;47179;-48
2023/08/21 03:30:15;;;;;;;;;5.00;5.00;;;;;22.75;53.34;101912.13;5056578;28;45421;-50
2023/08/21 03:32:40;;;;;;;;;5.00;5.00;;;;;22.66;52.76;101909.56;5056908;28;45379;-50
2023/08/21 03:35:06;;;;;;;;;9.25;6.50;;;;;22.70;53.35;101929.00;5056497;28;45448;-47
2023/08/21 03:37:31;;;;;;;;;8.25;5.25;;;;;22.66;53.17;101925.84;5056102;28;47460;-50
2023/08/21 03:39:56;;;;;;;;;6.50;6.50;;;;;22.63;53.47;101923.53;5056425;28;45182;-47
2023/08/21 03:42:22;;;;;;;;;13.75;6.00;;;;;22.64;53.29;101924.38;5056470;28;45387;-49
2023/08/21 03:44:49;;;;;;;;;10.50;7.00;;;;;22.64;53.52;101927.09;5056766;28;45414;-50
2023/08/21 03:47:16;;;;;;;;;7.80;5.20;;;;;22.61;53.54;101928.31;5056355;28;46103;-50
2023/08/21 03:49:41;;;;;;;;;7.40;5.40;;;;;22.61;53.60;101932.91;5056293;28;45421;-47
2023/08/21 03:52:06;;;;;;;;;6.50;6.25;;;;;22.58;53.81;101917.84;5056514;28;45269;-51
2023/08/21 03:54:32;;;;;;;;;6.50;4.75;;;;;22.60;53.56;101936.66;5056774;28;45473;-48
2023/08/21 03:56:57;;;;;;;;;6.25;4.00;;;;;22.58;53.45;101939.53;5056382;28;46251;-45
2023/08/21 03:59:23;;;;;;;;;9.00;6.25;;;;;22.58;53.39;101930.56;5056473;28;45343;-48
2023/08/21 04:01:49;;;;;;;;;7.20;4.60;;;;;22.55;53.53;101925.56;5056380;28;45442;-52
2023/08/21 04:04:14;;;;;;;;;8.75;6.75;;;;;22.54;53.24;101930.13;5056406;28;45297;-49
2023/08/21 04:06:40;;;;;;;;;5.75;4.00;;;;;22.49;53.69;101929.88;5056126;28;47314;-46
2023/08/21 04:09:06;;;;;;;;;5.75;4.50;;;;;22.48;53.72;101920.09;5056111;28;45221;-46
2023/08/21 04:11:32;;;;;;;;;8.20;5.60;;;;;22.48;54.06;101922.78;5056173;28;45457;-46
2023/08/21 04:13:58;;;;;;;;;1.20;0.00;;;;;22.46;53.98;101924.88;5056218;28;45429;-47
2023/08/21 04:16:24;;;;;;;;;6.20;5.60;;;;;22.46;54.16;101924.88;5055939;28;46219;-47
2023/08/21 04:18:49;;;;;;;;;6.50;4.00;;;;;22.45;54.44;101925.88;5055956;28;45349;-46
2023/08/21 04:21:15;;;;;;;;;8.00;5.00;;;;;22.43;54.12;101938.81;5056326;28;45360;-46
2023/08/21 04:23:40;;;;;;;;;6.75;5.50;;;;;22.39;54.10;101937.53;5055988;28;45513;-50
2023/08/21 04:26:07;;;;;;;;;5.00;4.50;;;;;22.40;54.39;101942.75;5055226;28;49193;-48
2023/08/21 04:28:33;;;;;;;;;6.00;6.00;;;;;22.40;54.39;101939.19;5055930;28;45479;-50
2023/08/21 04:30:59;;;;;;;;;6.00;4.00;;;;;22.34;54.39;101931.88;5055692;28;45402;-48
2023/08/21 04:33:26;;;;;;;;;7.00;4.75;;;;;22.35;54.84;101938.97;5059950;28;45431;-46
2023/08/21 04:35:52;;;;;;;;;5.00;3.20;;;;;22.37;54.63;101942.28;5059049;28;45400;-48
2023/08/21 04:38:17;;;;;;;;;8.80;5.00;;;;;22.36;54.54;101940.63;5059341;28;45407;-48
2023/08/21 04:40:42;;;;;;;;;4.00;2.25;;;;;22.37;54.61;101953.13;5059335;28;45534;-48
2023/08/21 04:43:08;;;;;;;;;4.75;3.25;;;;;22.34;54.47;101948.13;5059356;28;45446;-52
2023/08/21 04:45:33;;;;;;;;;6.00;3.00;;;;;22.36;54.82;101957.72;5059133;28;47570;-48
2023/08/21 04:47:58;;;;;;;;;4.75;4.00;;;;;22.35;54.64;101953.34;5059034;28;45401;-49
2023/08/21 04:50:24;;;;;;;;;5.25;2.50;;;;;22.34;54.58;101959.81;5059303;28;45406;-47
2023/08/21 04:52:50;;;;;;;;;6.00;3.25;;;;;22.33;54.07;101962.69;5059614;28;45256;-49
2023/08/21 04:55:16;;;;;;;;;2.75;1.75;;;;;22.28;54.26;101948.88;5058844;28;46151;-49
2023/08/21 04:57:41;;;;;;;;;3.00;3.00;;;;;22.31;54.03;101953.94;5058852;28;45441;-48
2023/08/21 05:00:07;;;;;;;;;3.75;1.00;;;;;22.28;53.97;101957.84;5059094;28;45355;-51
2023/08/21 05:02:33;;;;;;;;;1.40;1.00;;;;;22.29;54.04;101954.13;5059275;28;45289;-49
2023/08/21 05:04:59;;;;;;;;;2.40;1.80;;;;;22.29;53.74;101962.28;5058919;28;46764;-49
2023/08/21 05:07:24;;;;;;;;;1.25;1.25;;;;;22.29;53.80;101962.28;5059055;28;45447;-48
2023/08/21 05:09:49;;;;;;;;;1.00;1.00;;;;;22.28;53.99;101959.72;5059051;28;45671;-47
2023/08/21 05:12:25;;;;;;;;;;;;;;;;;;;;;
2023/08/21 05:14:54;;;;;;;;;4.80;1.60;;;;;22.17;54.10;101952.97;5056112;28;75781;-47
2023/08/21 05:17:19;;;;;;;;;2.20;1.00;;;;;22.22;54.16;101966.78;5057495;28;45442;-50
2023/08/21 05:19:44;;;;;;;;;3.00;1.25;;;;;22.28;53.80;101978.72;5058884;28;45406;-48
2023/08/21 05:22:10;;;;;;;;;1.50;1.50;;;;;22.27;54.26;101977.03;5058827;28;45402;-48
2023/08/21 05:24:35;;;;;;;;;0.50;0.50;;;;;22.27;53.95;101963.50;5058557;28;45407;-52
2023/08/21 05:27:01;;;;;;;;;2.00;1.00;;;;;22.27;54.08;101966.19;5058603;28;45426;-51
2023/08/21 05:29:26;;;;;;;;;1.25;1.25;;;;;22.27;53.70;101975.16;5058689;28;45553;-52
2023/08/21 05:31:51;;;;;;;;;2.00;1.25;;;;;22.27;54.13;101977.88;5058840;28;45382;-47
2023/08/21 05:34:17;;;;;;;;;2.00;2.00;;;;;22.23;54.03;101963.03;5058261;28;51831;-51
2023/08/21 05:36:42;;;;;;;;;2.00;0.75;;;;;22.22;54.21;101966.78;5058501;28;45538;-52
2023/08/21 05:39:08;;;;;;;;;1.75;1.00;;;;;22.28;53.78;101981.41;5058628;28;45435;-51
2023/08/21 05:41:34;;;;;;;;;2.00;0.80;;;;;22.27;53.95;101975.16;5058835;28;45333;-50
2023/08/21 05:43:59;;;;;;;;;1.00;1.00;;;;;22.26;53.96;101972.66;5057938;28;46135;-50
2023/08/21 05:46:24;;;;;;;;;2.50;1.00;;;;;22.29;53.53;101977.66;5058582;28;45428;-53
2023/08/21 05:48:50;;;;;;;;;5.00;2.25;;;;;22.10;53.46;101946.63;5058443;28;45178;-50
2023/08/21 05:51:15;;;;;;;;;3.00;1.50;;;;;22.30;54.04;101987.50;5057990;28;45513;-52
2023/08/21 05:53:40;;;;;;;;;0.50;0.50;;;;;22.29;54.13;101975.81;5058171;28;46491;-49
2023/08/21 05:56:06;;;;;;;;;3.00;1.50;;;;;22.33;54.02;101978.97;5057976;28;45333;-51
2023/08/21 05:58:32;;;;;;;;;0.75;0.75;;;;;22.35;53.83;101987.75;5058311;28;45370;-49
2023/08/21 06:00:58;;;;;;;;;1.80;1.60;;;;;22.36;53.68;101986.72;5058421;28;45405;-52
2023/08/21 06:03:24;;;;;;;;;0.50;0.50;;;;;22.37;53.49;101985.66;5058059;28;45450;-48
2023/08/21 06:05:49;;;;;;;;;1.25;1.00;;;;;22.38;53.29;101992.78;5058159;28;45478;-48
2023/08/21 06:08:14;;;;;;;;;2.00;2.00;;;;;22.36;53.05;101986.72;5058198;28;45338;-51
2023/08/21 06:10:40;;;;;;;;;2.50;1.25;;;;;22.40;53.11;101991.53;5057971;28;45406;-49
2023/08/21 06:13:05;;;;;;;;;1.25;1.25;;;;;22.42;52.97;101999.50;5057882;28;46262;-47
2023/08/21 06:15:30;;;;;;;;;2.25;1.75;;;;;22.45;53.20;101995.56;5057904;28;45347;-48
2023/08/21 06:17:58;;;;;;;;;1.50;1.00;;;;;22.46;53.00;101989.09;5058008;28;45474;-48
2023/08/21 06:20:23;;;;;;;;;1.80;0.80;;;;;22.48;53.12;102001.44;5057824;28;45548;-47
2023/08/21 06:22:49;;;;;;;;;1.00;1.00;;;;;22.54;52.77;101999.78;5057633;28;47496;-51
2023/08/21 06:25:14;;;;;;;;;3.50;1.00;;;;;22.54;52.40;101989.78;5057477;28;45423;-49
2023/08/21 06:27:39;;;;;;;;;5.00;2.00;;;;;22.53;52.33;101990.00;5057794;28;45633;-47
2023/08/21 06:30:05;;;;;;;;;2.00;2.00;;;;;22.59;52.31;101995.47;5056823;28;45440;-45
2023/08/21 06:32:31;;;;;;;;;1.60;1.00;;;;;22.58;52.09;101987.53;5057517;28;45430;-47
2023/08/21 06:34:56;;;;;;;;;0.75;0.25;;;;;22.65;51.94;102002.00;5057296;28;45375;-47
2023/08/21 06:37:21;;;;;;;;;0.50;0.50;;;;;22.69;51.53;102005.16;5058265;28;45384;-47
2023/08/21 06:39:47;;;;;;;;;1.25;0.50;;;;;22.72;51.54;102002.88;5057792;28;45287;-47
2023/08/21 06:42:12;;;;;;;;;1.00;1.00;;;;;22.78;51.35;102001.25;5057240;28;47321;-50
2023/08/21 06:44:37;;;;;;;;;0.00;0.00;;;;;22.81;51.37;101999.00;5057428;28;45500;-47
2023/08/21 06:47:03;;;;;;;;;18.50;17.00;;;;;22.88;51.46;102001.75;5057467;28;45408;-47
2023/08/21 06:49:28;;;;;;;;;4.50;3.00;;;;;22.94;51.18;102002.88;5057844;28;45455;-50
2023/08/21 06:51:53;;;;;;;;;1.50;1.50;;;;;22.97;51.05;102000.59;5056920;28;53808;-48
2023/08/21 06:54:18;;;;;;;;;1.00;1.00;;;;;23.00;50.91;101999.34;5056119;28;45379;-50
2023/08/21 06:56:44;;;;;;;;;47.75;36.00;;;;;23.07;50.47;102001.09;5057070;28;45308;-45
2023/08/21 06:59:09;;;;;;;;;20.50;17.75;;;;;23.19;50.33;102011.41;5057336;28;45442;-45
2023/08/21 07:01:35;;;;;;;;;1.25;1.00;;;;;23.29;50.17;102003.72;5057161;28;45690;-46
2023/08/21 07:04:00;;;;;;;;;0.00;0.00;;;;;23.43;50.37;101997.34;5057036;28;45438;-49
2023/08/21 07:06:28;;;;;;;;;1.50;1.50;;;;;23.63;49.63;101991.97;5057469;28;45331;-48
2023/08/21 07:08:53;;;;;;;;;3.40;1.80;;;;;24.29;48.25;102002.22;5057216;28;45549;-44
2023/08/21 07:11:19;;;;;;;;;2.00;1.75;;;;;25.58;45.75;102002.53;5056584;28;47293;-47
2023/08/21 07:13:44;;;;;;;;;1.00;1.00;;;;;27.09;42.89;102001.75;5056244;28;45443;-50
2023/08/21 07:16:09;;;;;;;;;0.50;0.50;;;;;28.28;40.13;101995.84;5056959;28;46276;-47
2023/08/21 07:18:35;;;;;;;;;0.50;0.50;;;;;29.27;38.80;101993.28;5057056;28;45264;-47
2023/08/21 07:21:03;;;;;;;;;1.00;1.00;;;;;30.13;37.04;101993.34;5056469;28;45716;-48
2023/08/21 07:23:28;;;;;;;;;0.40;0.20;;;;;30.85;35.40;101988.00;5056581;28;45458;-46
2023/08/21 07:25:54;;;;;;;;;0.00;0.00;;;;;31.59;35.19;101990.38;5056990;28;45639;-48
2023/08/21 07:28:19;;;;;;;;;1.50;0.25;;;;;32.17;33.08;101987.97;5056937;28;45517;-48
2023/08/21 07:30:44;;;;;;;;;0.25;0.25;;;;;32.75;32.75;101989.00;5056616;28;46286;-49
2023/08/21 07:33:10;;;;;;;;;0.75;0.00;;;;;33.30;31.70;101993.19;5056666;28;45409;-46
2023/08/21 07:35:36;;;;;;;;;0.25;0.00;;;;;33.72;31.59;102000.56;5056491;28;45407;-50
2023/08/21 07:38:01;;;;;;;;;1.60;1.20;;;;;34.05;31.07;102002.03;5057017;28;45412;-48
2023/08/21 07:40:26;;;;;;;;;2.00;2.00;;;;;34.03;30.09;102004.22;5056355;28;47151;-49
2023/08/21 07:42:52;;;;;;;;;0.50;0.00;;;;;33.94;30.78;102005.84;5056660;28;45458;-52
2023/08/21 07:45:17;;;;;;;;;0.75;0.75;;;;;33.92;30.91;101997.84;5056595;28;45314;-47
2023/08/21 07:47:42;;;;;;;;;3.00;0.00;;;;;33.92;30.54;101997.84;5056829;28;45319;-47
2023/08/21 07:50:08;;;;;;;;;0.50;0.00;;;;;33.94;30.17;101990.09;5056239;28;46241;-47
2023/08/21 07:52:35;;;;;;;;;1.75;0.00;;;;;34.07;29.94;101986.00;5056108;28;45251;-47
2023/08/21 07:55:00;;;;;;;;;0.60;0.60;;;;;34.22;30.30;102001.78;5056369;28;45435;-46
2023/08/21 07:57:29;;;;;;;;;2.50;1.00;;;;;34.28;29.52;102006.19;5056828;28;45421;-49
2023/08/21 07:59:55;;;;;;;;;1.40;0.00;;;;;34.34;30.01;102007.81;5056207;28;46546;-47
2023/08/21 08:02:20;;;;;;;;;0.00;0.00;;;;;34.47;30.12;102014.72;5056414;28;45301;-47
2023/08/21 08:04:46;;;;;;;;;2.50;1.00;;;;;34.62;29.19;102005.66;5054549;28;45354;-47
2023/08/21 08:07:11;;;;;;;;;0.80;0.80;;;;;34.83;29.21;102004.50;5056110;28;45443;-51
2023/08/21 08:09:37;;;;;;;;;0.00;0.00;;;;;35.15;29.03;102003.34;5055802;28;47310;-50
2023/08/21 08:12:02;;;;;;;;;1.75;1.00;;;;;35.43;28.96;102010.13;5055456;28;45400;-48
2023/08/21 08:14:28;;;;;;;;;0.00;0.00;;;;;35.68;28.33;102011.97;5056046;28;45352;-49
2023/08/21 08:16:53;;;;;;;;;0.50;0.25;;;;;36.06;27.97;102009.56;5056220;28;45292;-47
2023/08/21 08:19:18;;;;;;;;;2.00;0.50;;;;;36.88;27.51;102010.50;5054346;28;46190;-45
2023/08/21 08:21:44;;;;;;;;;0.00;0.00;;;;;38.32;26.18;102001.13;5055850;28;45302;-47
2023/08/21 08:24:09;;;;;;;;;0.75;0.75;;;;;39.90;23.59;101993.19;5055670;28;45273;-50
2023/08/21 08:26:35;;;;;;;;;1.00;1.00;;;;;41.45;22.77;102004.72;5055818;28;45371;-49
2023/08/21 08:29:00;;;;;;;;;3.00;0.00;;;;;42.59;21.12;102004.31;5055391;28;45463;-51
2023/08/21 08:31:27;;;;;;;;;0.75;0.75;;;;;43.33;21.82;102001.03;5055623;28;45393;-50
2023/08/21 08:33:53;;;;;;;;;0.80;0.80;;;;;44.04;19.86;102013.38;5055655;28;45279;-50
2023/08/21 08:36:18;;;;;;;;;0.00;0.00;;;;;44.81;18.88;102011.72;5055392;28;45418;-50
2023/08/21 08:38:44;;;;;;;;;3.25;1.75;;;;;45.62;18.66;102008.25;5054827;28;45576;-45
2023/08/21 08:41:25;;;;;;;;;2.50;2.50;;;;;46.24;17.73;102006.88;5055144;28;45444;-47
2023/08/21 08:43:51;;;;;;;;;56.60;44.00;;;;;47.23;17.13;102002.94;5055152;28;45348;-47
2023/08/21 08:46:17;;;;;;;;;4.60;4.00;;;;;48.06;16.72;102002.72;5055439;28;45544;-50
2023/08/21 08:48:43;;;;;;;;;16.60;15.00;;;;;48.61;15.63;102002.50;5055265;28;46570;-50
2023/08/21 08:51:09;;;;;;;;;3.00;1.00;;;;;49.13;15.62;102006.59;5055217;28;45485;-49
2023/08/21 08:53:36;;;;;;;;;2.60;1.20;;;;;49.56;14.47;101999.56;5055484;28;45407;-48
2023/08/21 08:56:02;;;;;;;;;1.20;0.40;;;;;50.12;14.26;101992.09;5055541;28;45392;-46
2023/08/21 08:58:28;;;;;;;;;0.25;0.25;;;;;50.59;14.10;101991.34;5055180;28;46387;-47
2023/08/21 09:00:53;;;;;;;;;1.40;1.00;;;;;50.97;15.03;101991.25;5055440;28;45438;-45
2023/08/21 09:03:19;;;;;;;;;0.00;0.00;;;;;51.40;13.20;101995.13;5055190;28;45407;-51
2023/08/21 09:05:44;;;;;;;;;0.50;0.00;;;;;51.93;14.27;102000.22;5055518;28;45158;-51
2023/08/21 09:08:11;;;;;;;;;1.33;0.67;;;;;52.28;13.96;101996.63;5055002;28;46191;-53
2023/08/21 09:10:38;;;;;;;;;0.25;0.25;;;;;52.56;12.60;102003.56;5055104;28;45564;-50
2023/08/21 09:13:18;;;;;;;;;1.75;1.50;;;;;52.78;14.50;102001.50;5055275;28;45472;-48
2023/08/21 09:15:54;;;;;;;;;0.00;0.00;;;;;53.03;12.99;101999.44;5055354;28;45428;-51
2023/08/21 09:18:19;;;;;;;;;0.75;0.25;;;;;53.46;12.47;101999.31;5057059;28;45365;-51
2023/08/21 09:20:45;;;;;;;;;0.33;0.33;;;;;53.77;12.12;101991.81;5058430;28;45333;-46
2023/08/21 09:23:15;;;;;;;;;1.00;1.00;;;;;54.12;11.88;101978.63;5058408;28;45173;-48
2023/08/21 09:25:40;;;;;;;;;2.00;0.00;;;;;54.64;12.71;101977.78;5058355;28;45647;-51
2023/08/21 09:28:07;;;;;;;;;0.33;0.00;;;;;55.12;11.34;101983.34;5058399;28;45395;-51
2023/08/21 09:30:53;;;;;;;;;1.25;0.00;;;;;55.26;12.25;101986.06;5058242;28;45386;-51
2023/08/21 09:33:20;;;;;;;;;0.00;0.00;;;;;55.33;11.88;101979.44;5058059;28;45271;-52
2023/08/21 09:35:46;;;;;;;;;2.25;0.75;;;;;55.44;11.05;101977.25;5058567;28;45320;-50
2023/08/21 09:38:12;;;;;;;;;1.00;0.00;;;;;55.47;11.22;101973.59;5058219;28;46173;-49
2023/08/21 09:40:42;;;;;;;;;1.00;0.75;;;;;55.65;10.82;101975.38;5058129;28;45490;-48
2023/08/21 09:43:11;;;;;;;;;0.50;0.50;;;;;55.66;12.74;101976.97;5058437;28;45331;-50
2023/08/21 09:45:37;;;;;;;;;0.25;0.25;;;;;55.72;11.11;101976.09;5058389;28;45427;-49
2023/08/21 09:48:03;;;;;;;;;1.33;1.00;;;;;55.89;11.64;101968.50;5058209;28;45406;-49
2023/08/21 09:50:29;;;;;;;;;0.00;0.00;;;;;55.89;10.92;101970.56;5057966;28;45506;-51
2023/08/21 09:52:58;;;;;;;;;0.50;0.25;;;;;56.23;11.49;101973.28;5058280;28;45462;-48
2023/08/21 09:55:26;;;;;;;;;2.75;2.00;;;;;56.33;10.52;101969.41;5058439;28;45469;-48
2023/08/21 09:57:58;;;;;;;;;2.75;2.75;;;;;56.42;10.80;101971.72;5057542;28;46115;-50
2023/08/21 10:00:26;;;;;;;;;0.75;0.75;;;;;56.61;11.37;101973.03;5058128;28;45385;-52
2023/08/21 10:02:54;;;;;;;;;0.50;0.25;;;;;56.60;10.61;101965.66;5056755;28;45474;-48
2023/08/21 10:05:20;;;;;;;;;0.00;0.00;;;;;56.71;11.31;101969.13;5057985;28;45320;-47
2023/08/21 10:07:48;;;;;;;;;3.25;1.00;;;;;56.74;10.09;101957.66;5057532;28;45458;-49
2023/08/21 10:10:13;;;;;;;;;0.50;0.25;;;;;57.05;10.80;101976.69;5057746;28;45417;-51
2023/08/21 10:12:39;;;;;;;;;2.00;0.00;;;;;57.22;10.98;101966.91;5057748;28;45441;-48
2023/08/21 10:15:09;;;;;;;;;1.33;1.33;;;;;57.44;10.34;101964.38;5058109;28;45410;-50
2023/08/21 10:17:35;;;;;;;;;1.50;0.25;;;;;57.49;11.50;101963.88;5057585;28;46215;-49
2023/08/21 10:20:07;;;;;;;;;0.50;0.00;;;;;57.32;10.99;101963.00;5057606;28;45384;-48
2023/08/21 10:22:46;;;;;;;;;1.00;0.25;;;;;57.27;10.02;101952.06;5057679;28;45280;-49
2023/08/21 10:25:16;;;;;;;;;0.25;0.25;;;;;57.32;10.71;101948.69;5057759;28;45276;-47
2023/08/21 10:27:43;;;;;;;;;1.00;0.75;;;;;57.15;10.55;101944.19;5057379;28;45289;-50
2023/08/21 10:30:19;;;;;;;;;1.00;1.00;;;;;57.29;11.38;101938.13;5057190;28;45337;-51
2023/08/21 10:32:50;;;;;;;;;3.00;1.75;;;;;57.48;10.42;101933.63;5057042;28;45358;-52
2023/08/21 10:35:19;;;;;;;;;1.25;0.75;;;;;57.41;10.68;101931.75;5057553;28;45582;-51
2023/08/21 10:38:20;;;;;;;;;0.00;0.00;;;;;57.46;10.73;101927.56;5057248;28;45433;-48
2023/08/21 10:41:06;;;;;;;;;0.25;0.25;;;;;57.57;10.64;101933.00;5057379;28;45308;-46
2023/08/21 10:43:43;;;;;;;;;0.25;0.25;;;;;57.91;9.50;101933.41;5057206;28;45420;-53
2023/08/21 10:46:08;;;;;;;;;1.50;0.75;;;;;57.80;9.79;101926.34;5057251;28;45631;-52
2023/08/21 10:48:35;;;;;;;;;0.00;0.00;;;;;57.73;10.20;101919.53;5057229;28;45737;-48
2023/08/21 10:51:03;;;;;;;;;0.00;0.00;;;;;57.58;10.36;101924.00;5056987;28;45728;-49
2023/08/21 10:53:28;;;;;;;;;1.00;0.50;;;;;57.39;10.47;101914.22;5057197;28;45319;-50
2023/08/21 10:55:54;;;;;;;;;0.00;0.00;;;;;57.33;10.42;101916.00;5056242;28;45239;-51
2023/08/21 10:58:19;;;;;;;;;0.33;0.00;;;;;57.23;9.51;101917.84;5056988;28;46271;-48
2023/08/21 11:00:45;;;;;;;;;0.00;0.00;;;;;57.02;10.66;101912.56;5057089;28;45253;-51
2023/08/21 11:03:10;;;;;;;;;0.00;0.00;;;;;56.77;10.60;101907.38;5055547;28;45538;-50
2023/08/21 11:05:35;;;;;;;;;1.00;1.00;;;;;56.44;11.02;101895.75;5057096;28;45412;-48
2023/08/21 11:08:01;;;;;;;;;1.33;1.33;;;;;56.32;10.20;101902.09;5056736;28;46419;-47
2023/08/21 11:10:30;;;;;;;;;2.00;0.67;;;;;56.31;11.11;101897.63;5055617;28;45401;-49
2023/08/21 11:13:01;;;;;;;;;1.25;0.50;;;;;56.38;11.02;101894.63;5056450;28;45438;-49
2023/08/21 11:15:27;;;;;;;;;1.50;1.50;;;;;56.37;10.33;101898.72;5056992;28;45499;-47
2023/08/21 11:18:03;;;;;;;;;1.25;1.25;;;;;56.28;11.29;101895.63;5056773;28;46572;-51
2023/08/21 11:20:33;;;;;;;;;2.75;1.00;;;;;56.19;11.23;101898.25;5056554;28;45352;-49
2023/08/21 11:23:07;;;;;;;;;1.00;0.50;;;;;56.07;11.27;101891.09;5056675;28;45447;-51